KGZH

Evergreen Regional/Middleton Field Airport

Evergreen, Alabama, USA
METAR KGZH 151253Z AUTO 34005KT 10SM CLR 05/03 A3010 RMK AO2 SLP192 T00500028
Observed Flight Rules
Dec-15 @ 12:53 UTC (59 minutes ago) Visual Flight Rules
Wind Visibility Clouds
340° at 5 knots 10 miles
  • Clear skies
Temperatures Readings
Current 5°C / 41°F
Dewpoint 3°C / 37°F
Humidity 87%
Altimeter 30.1" Hg
Pressure 1019.2 hPa
Elevation 78
METAR KGZH 151253Z AUTO 34005KT 10SM CLR 05/03 A3010 RMK AO2 SLP192 T00500028
Observed Flight Rules
Dec-15 @ 12:53 UTC
(59 minutes ago)
VFR
Wind Visibility
340° at 5 knots 10 miles
Clouds
  • Clear skies
Temperature Dewpoint
5°C / 41°F 3°C / 37°F
Humidity Altimeter Pressure
87% 30.1" Hg 1019.2 hPa